Lexington, KY (40502)

12:12 PM EST on February 14, 2016 (GMT -0500)
Plainview | | Change Station
CLOSE
Current Station
Personal Weather Station
Location: Lexington, KY
Elevation: 1001 ft
Nearby Weather Stations
Active Advisory: Winter Storm Warning

Elev 1001 ft 38.00 °N, 84.46 °W | Updated 13 minutes ago

Overcast
Overcast
17.2 °F
Feels Like 8 °F
N
6.3
Wind Variable Wind from SE

Today
High -- | Low -- °F
--% Chance of Precip.
Yesterday
High -- | Low -- °F
Precip. -- in
Pressure 30.38 in
Visibility 8.0 miles
Clouds Overcast 4600 ft
Windchill 8 °F
Dew Point 11 °F
Humidity 76%
Rainfall 0.00 in
Snow Depth Not available.
7:29 AM 6:15 PM
Waxing Crescent, 43% visible
METAR KLEX 141654Z 11011KT 8SM OVC046 M08/M12 A3034 RMK AO2 UPB15E29SNE15 SLP288 P0000 T10781122
Pressure 30.38 in
Visibility 8.0 miles
Clouds Overcast 4600 ft
Windchill 8 °F
Dew Point 11 °F
Humidity 76%
Rainfall 0.00 in
Snow Depth Not available.
7:29 AM 6:15 PM
Waxing Crescent, 43% visible
METAR KLEX 141654Z 11011KT 8SM OVC046 M08/M12 A3034 RMK AO2 UPB15E29SNE15 SLP288 P0000 T10781122

10-Day Weather Forecast

Almanac

Astronomy

Feb. 14, 2016 Rise Set
Actual Time
Civil Twilight
Nautical Twilight
Astronomical Twilight
Moon
Length of Visible Light
Length of Day
Tomorrow will be .
, % of the Moon is Illuminated

Today's Extremes

State Highs State Lows

Community

WunderPhotos

Upload Photos

1,892,853 photos uploaded!

WunderBlog® & News

Nearby

Air Quality

  Air Quality AQ Index Pollutant
Not available.

Snow Depth

Station Depth Elevation

Earthquake Activity

City Distance Mag. Time & Date
Minimum magnitude displayed is 2.5.

Coastal Water Temperatures

Place Temperature

Stations

Nearby Weather Stations

Station Location Temp. Windchill Dew Point Humidity Wind Precip. Elev Updated Type
                   

Watches & Warnings

Winter Storm Warning
Issued: 10:45 AM CST Feb. 14, 2016 – National Weather Service

... Winter Storm Warning remains in effect until 10 am EST /9 am
CST/ Monday...

* accumulations... 3 to 5 inches... with locally higher amounts.

* Timing... moderate to occasionally heavy snow will spread from
west to east early this afternoon. Precipitation will taper to
drizzle this evening.

* Main impact... snowfall rates of 1 to 2 inches per hour will be
possible at times this afternoon. Travel will be hazardous as
even treated primary roads will become snow covered.

* Other impacts... there is a chance of a brief period of
freezing drizzle late Sunday night before transitioning to
drizzle or rain Monday morning.

Precautionary/preparedness actions...

A Winter Storm Warning for snow means severe winter weather
conditions are expected or occurring. Significant amounts of snow
are forecast that will make travel dangerous.